Weather observations for the past three days for
Wenatchee - Pangborn Memorial Airport
Metric (Imperial)
Date Time (pdt) Wind (kph) Vis. (km) Weather Sky Cond. Temperature (ºC) Relative Humidity Wind Chill (°C) Heat Index (°C) Pressure Precipitation (cm)
Air Dwpt 6 hour altimeter (cm) sea level (mb) 1 hr 3 hr 6 hr
Max. Min.
01 15:55 SE 15 16.09 Fair CLR 27.8 5.6 24% 27 75.29 1002.7
01 14:55 SE 13 14.48 Fair CLR 27.8 6.7 26% 27 75.31 1003.3
01 13:55 E 6 12.87 Fair CLR 26.1 5.6 27% 26 75.36 1003.9
01 12:55 SW 6 11.27 Fair CLR 23.9 6.7 33% 25 75.41 1004.6
01 11:55 W 7 6.44 Fair with Haze CLR 23.3 6.7 34% 75.46 1005.4
01 10:55 SW 11 6.44 Fair with Haze CLR 20.6 7.2 20.6 15 42% 75.54 1006.4
01 09:55 W 11 9.66 A Few Clouds with Haze FEW027 20 6.7 42% 75.59 1006.8
01 08:55 W 11 8.05 A Few Clouds with Haze FEW032 16.7 6.7 52% 75.59 1007.2
01 07:55 W 11 8.05 Partly Cloudy with Haze SCT025 16.1 6.7 54% 75.62 1007.3
01 06:55 W 19 9.66 Fair with Haze CLR 15.6 6.7 56% 75.59 1007.1
01 05:55 NW 15 12.87 Fair CLR 16.1 6.1 52% 75.59 1006.9
01 04:55 W 17 12.87 Fair CLR 16.7 6.7 20.6 16.1 52% 75.59 1007.0
01 03:55 W 11 16.09 Fair CLR 17.2 6.1 48% 75.62 1007.2
01 02:55 NE 6 16.09 Fair CLR 16.7 6.7 52% 75.62 1007.3
01 01:55 W 19 16.09 Fair CLR 17.8 6.1 46% 75.62 1007.2
01 00:55 NW 15 16.09 Fair CLR 20 5.6 39% 75.64 1007.7
31 23:55 NW 9 16.09 Fair CLR 19.4 6.1 42% 75.64 1007.6
31 22:55 W 15 16.09 Fair CLR 20.6 6.1 28.3 20.6 39% 75.64 1007.8
31 21:55 NW 9 16.09 Fair CLR 21.7 5 34% 75.67 1008.0
31 20:55 NW 9 16.09 Fair CLR 22.8 5.6 33% 75.64 1007.9
31 19:55 NE 7 16.09 Fair CLR 23.9 6.7 33% 25 75.64 1007.8
31 18:55 E 6 16.09 Fair CLR 26.1 6.7 29% 26 75.64 1007.8
31 17:55 SE 13 16.09 Fair CLR 27.8 4.4 22% 27 75.69 1008.2
31 16:55 S 15 16.09 Fair CLR 27.8 4.4 27.8 19.4 22% 27 75.74 1008.9
31 15:55 SE 15 16.09 Fair CLR 27.2 4.4 23% 26 75.79 1009.6
31 14:55 SE 15 16.09 Fair CLR 26.7 5 25% 26 75.84 1010.5
31 13:55 SE 13 16.09 Fair CLR 26.1 5 26% 26 75.92 1011.4
31 12:55 Calm 16.09 Fair CLR 24.4 5.6 30% 25 76 1012.4
31 11:55 Calm 14.48 Fair CLR 22.2 7.8 40% 76.07 1013.6
31 10:55 Calm 9.66 Fair with Haze CLR 19.4 7.8 19.4 12.8 47% 76.15 1014.7
31 09:55 W 7 8.05 Fair with Haze CLR 16.7 7.8 56% 76.17 1015.3
31 08:55 W 13 11.27 Fair CLR 15 7.8 62% 76.23 1015.7
31 07:55 W 7 16.09 Fair CLR 13.9 7.8 67% 76.2 1015.5
31 06:55 NW 17 16.09 Fair CLR 13.3 7.2 67% 76.17 1015.0
31 05:55 N 13 16.09 Fair CLR 13.3 7.8 70% 76.15 1014.8
31 04:55 NW 17 16.09 Fair CLR 14.4 7.8 18.3 13.9 65% 76.15 1014.5
31 03:55 W 9 16.09 Fair CLR 14.4 7.8 65% 76.15 1014.7
31 02:55 NW 11 16.09 Fair CLR 15.6 7.8 60% 76.15 1014.5
31 01:55 NW 15 16.09 Fair CLR 16.7 7.8 56% 76.15 1014.7
31 00:55 NW 15 16.09 Fair CLR 17.2 7.8 54% 76.15 1014.6
30 23:55 N 19 16.09 Fair CLR 17.8 7.8 52% 76.15 1014.8
30 22:55 N 19 16.09 Fair CLR 17.8 7.8 25 17.8 52% 76.17 1014.9
30 21:55 N 20 16.09 Fair CLR 18.9 7.8 49% 76.17 1015.1
30 20:55 N 20 16.09 Fair CLR 20.6 7.8 44% 76.15 1014.6
30 19:55 SE 11 16.09 Fair CLR 21.7 5.6 35% 76.07 1013.7
30 18:55 E 9 16.09 Fair CLR 23.3 5.6 32% 76.05 1013.6
30 17:55 E 11 16.09 Fair CLR 24.4 5 29% 25 76.07 1013.6
30 16:55 SE 9 16.09 Fair CLR 24.4 4.4 25 19.4 27% 25 76.07 1013.6
30 15:55 SE 13 16.09 Fair CLR 24.4 4.4 27% 25 76.12 1014.2
30 14:55 Vrbl 11 16.09 Fair CLR 23.9 3.9 27% 25 76.17 1015.0
30 13:55 Vrbl 9 16.09 Fair CLR 22.8 3.9 29% 76.2 1015.4
30 12:55 S 9 16.09 Fair CLR 21.7 3.3 30% 76.23 1015.7
30 11:55 SW 7 16.09 Fair CLR 20 4.4 36% 76.25 1016.3
30 10:55 W 19 16.09 Fair CLR 19.4 3.9 20 12.2 36% 76.25 1016.3
30 09:55 W 17 16.09 Fair CLR 17.8 4.4 41% 76.28 1016.5
30 08:55 NW 6 16.09 Fair CLR 15.6 5 50% 76.28 1016.7
30 07:55 NW 11 16.09 Fair CLR 15 4.4 49% 76.3 1016.9
30 06:55 NW 7 16.09 Fair CLR 12.2 4.4 59% 76.28 1016.6
30 05:55 W 9 16.09 Fair CLR 12.8 4.4 57% 76.25 1016.4
30 04:55 NW 11 16.09 Fair CLR 12.8 4.4 15.6 12.2 57% 76.23 1016.0
30 03:55 NW 15 16.09 Fair CLR 13.3 4.4 55% 76.23 1015.8
30 02:55 N 9 16.09 Fair CLR 13.3 4.4 55% 76.23 1015.9
30 01:55 W 13 16.09 Fair CLR 13.9 4.4 53% 76.23 1015.8
30 00:55 W 20 16.09 Fair CLR 15 3.9 48% 76.2 1015.4
29 23:55 W 19 16.09 Fair CLR 15.6 3.9 46% 76.2 1015.3
29 22:55 W 19 16.09 Fair CLR 15.6 3.9 22.2 15.6 46% 76.23 1015.6
29 21:55 W 11 16.09 Fair CLR 16.1 3.3 43% 76.23 1015.7
29 20:55 W 20 16.09 Fair CLR 16.7 3.3 41% 76.2 1015.6
29 19:55 NW 24 16.09 Fair CLR 18.3 1.7 33% 76.15 1014.8
29 18:55 NW 31 16.09 Fair CLR 19.4 1.7 31% 76.1 1014.1
29 17:55 NW 41 G 56 16.09 Fair and Breezy CLR 20.6 2.2 30% 76.05 1013.3
Date Time (pdt) Wind (kph) Vis. (km) Weather Sky Cond. Air Dwpt Max. Min. Relative Humidity Wind Chill (°C) Heat Index (°C) altimeter (cm) sea level (mb) 1 hr 3 hr 6 hr
6 hour
Temperature (ºC) Pressure Precipitation (cm)